sensor_id;sensor_type;location;lat;lon;timestamp;pressure;altitude;pressure_sealevel;temperature
70050;BMP180;57391;51.306;22.680;2024-03-23T00:54:39;99005.60;;;10.60
70050;BMP180;57391;51.306;22.680;2024-03-23T00:56:41;98997.60;;;10.60
70050;BMP180;57391;51.306;22.680;2024-03-23T00:58:42;99005.40;;;10.60
70050;BMP180;57391;51.306;22.680;2024-03-23T01:00:44;99002.00;;;10.60
70050;BMP180;57391;51.306;22.680;2024-03-23T01:02:45;98999.40;;;10.60
70050;BMP180;57391;51.306;22.680;2024-03-23T01:04:47;98996.00;;;10.60
70050;BMP180;57391;51.306;22.680;2024-03-23T01:06:48;98989.40;;;10.60
70050;BMP180;57391;51.306;22.680;2024-03-23T01:08:50;98987.20;;;10.60
70050;BMP180;57391;51.306;22.680;2024-03-23T01:11:00;98978.00;;;10.60
70050;BMP180;57391;51.306;22.680;2024-03-23T01:13:01;98976.20;;;10.60
70050;BMP180;57391;51.306;22.680;2024-03-23T01:15:03;98978.20;;;10.60
70050;BMP180;57391;51.306;22.680;2024-03-23T01:17:05;98981.40;;;10.60
70050;BMP180;57391;51.306;22.680;2024-03-23T01:19:07;98979.60;;;10.60
70050;BMP180;57391;51.306;22.680;2024-03-23T01:21:09;98988.00;;;10.60
70050;BMP180;57391;51.306;22.680;2024-03-23T01:23:11;98981.80;;;10.60
70050;BMP180;57391;51.306;22.680;2024-03-23T01:25:12;98973.40;;;10.60
70050;BMP180;57391;51.306;22.680;2024-03-23T01:27:14;98970.60;;;10.60
70050;BMP180;57391;51.306;22.680;2024-03-23T01:29:16;98966.40;;;10.60
70050;BMP180;57391;51.306;22.680;2024-03-23T01:31:17;98966.00;;;10.60
70050;BMP180;57391;51.306;22.680;2024-03-23T01:33:19;98964.00;;;10.60
70050;BMP180;57391;51.306;22.680;2024-03-23T01:35:21;98959.00;;;10.60
70050;BMP180;57391;51.306;22.680;2024-03-23T01:37:22;98958.40;;;10.60
70050;BMP180;57391;51.306;22.680;2024-03-23T01:39:24;98957.00;;;10.60
70050;BMP180;57391;51.306;22.680;2024-03-23T01:41:26;98951.60;;;10.60
70050;BMP180;57391;51.306;22.680;2024-03-23T01:43:27;98952.60;;;10.60
70050;BMP180;57391;51.306;22.680;2024-03-23T01:45:30;98954.60;;;10.60
70050;BMP180;57391;51.306;22.680;2024-03-23T01:47:32;98950.00;;;10.60
70050;BMP180;57391;51.306;22.680;2024-03-23T01:49:35;98953.80;;;10.60
70050;BMP180;57391;51.306;22.680;2024-03-23T01:51:37;98946.80;;;10.60
70050;BMP180;57391;51.306;22.680;2024-03-23T01:53:39;98944.60;;;10.60
70050;BMP180;57391;51.306;22.680;2024-03-23T01:55:40;98944.60;;;10.60
70050;BMP180;57391;51.306;22.680;2024-03-23T01:57:42;98939.40;;;10.60
70050;BMP180;57391;51.306;22.680;2024-03-23T01:59:44;98934.60;;;10.60
70050;BMP180;57391;51.306;22.680;2024-03-23T02:01:46;98932.60;;;10.60
70050;BMP180;57391;51.306;22.680;2024-03-23T02:03:47;98939.00;;;10.60
70050;BMP180;57391;51.306;22.680;2024-03-23T02:05:50;98938.40;;;10.60
70050;BMP180;57391;51.306;22.680;2024-03-23T02:07:52;98939.00;;;10.60
70050;BMP180;57391;51.306;22.680;2024-03-23T02:09:54;98933.60;;;10.58
70050;BMP180;57391;51.306;22.680;2024-03-23T02:11:56;98932.20;;;10.52
70050;BMP180;57391;51.306;22.680;2024-03-23T02:13:57;98927.00;;;10.50
70050;BMP180;57391;51.306;22.680;2024-03-23T02:15:59;98928.80;;;10.50
70050;BMP180;57391;51.306;22.680;2024-03-23T02:18:01;98929.00;;;10.50
70050;BMP180;57391;51.306;22.680;2024-03-23T02:20:03;98928.60;;;10.50
70050;BMP180;57391;51.306;22.680;2024-03-23T02:22:07;98919.40;;;10.50
70050;BMP180;57391;51.306;22.680;2024-03-23T02:24:09;98923.80;;;10.50
70050;BMP180;57391;51.306;22.680;2024-03-23T02:26:10;98919.60;;;10.50
70050;BMP180;57391;51.306;22.680;2024-03-23T02:28:12;98910.80;;;10.50
70050;BMP180;57391;51.306;22.680;2024-03-23T02:30:14;98906.00;;;10.50
70050;BMP180;57391;51.306;22.680;2024-03-23T02:32:15;98907.40;;;10.50
70050;BMP180;57391;51.306;22.680;2024-03-23T02:34:17;98906.80;;;10.44
70050;BMP180;57391;51.306;22.680;2024-03-23T02:36:19;98902.40;;;10.40
70050;BMP180;57391;51.306;22.680;2024-03-23T02:38:22;98897.80;;;10.40
70050;BMP180;57391;51.306;22.680;2024-03-23T02:40:24;98901.60;;;10.40
70050;BMP180;57391;51.306;22.680;2024-03-23T02:42:26;98897.40;;;10.40
70050;BMP180;57391;51.306;22.680;2024-03-23T02:44:28;98897.00;;;10.40
70050;BMP180;57391;51.306;22.680;2024-03-23T02:46:29;98899.00;;;10.40
70050;BMP180;57391;51.306;22.680;2024-03-23T02:48:31;98899.00;;;10.40
70050;BMP180;57391;51.306;22.680;2024-03-23T02:50:32;98902.20;;;10.40
70050;BMP180;57391;51.306;22.680;2024-03-23T02:52:36;98903.40;;;10.38
70050;BMP180;57391;51.306;22.680;2024-03-23T02:54:37;98901.60;;;10.38
70050;BMP180;57391;51.306;22.680;2024-03-23T02:56:39;98902.20;;;10.34
70050;BMP180;57391;51.306;22.680;2024-03-23T02:58:42;98902.60;;;10.30
70050;BMP180;57391;51.306;22.680;2024-03-23T03:00:44;98902.00;;;10.30
70050;BMP180;57391;51.306;22.680;2024-03-23T03:02:45;98894.40;;;10.30
70050;BMP180;57391;51.306;22.680;2024-03-23T03:04:47;98900.60;;;10.30
70050;BMP180;57391;51.306;22.680;2024-03-23T03:06:49;98904.40;;;10.30
70050;BMP180;57391;51.306;22.680;2024-03-23T03:08:51;98895.60;;;10.30
70050;BMP180;57391;51.306;22.680;2024-03-23T03:10:52;98892.80;;;10.30
70050;BMP180;57391;51.306;22.680;2024-03-23T03:12:55;98889.60;;;10.24
70050;BMP180;57391;51.306;22.680;2024-03-23T03:14:57;98887.60;;;10.26
70050;BMP180;57391;51.306;22.680;2024-03-23T03:16:58;98885.00;;;10.24
70050;BMP180;57391;51.306;22.680;2024-03-23T03:19:00;98887.00;;;10.20
70050;BMP180;57391;51.306;22.680;2024-03-23T03:21:03;98879.80;;;10.22
70050;BMP180;57391;51.306;22.680;2024-03-23T03:23:07;98878.80;;;10.20
70050;BMP180;57391;51.306;22.680;2024-03-23T03:25:08;98874.40;;;10.20
70050;BMP180;57391;51.306;22.680;2024-03-23T03:27:10;98871.00;;;10.20
70050;BMP180;57391;51.306;22.680;2024-03-23T03:29:12;98866.20;;;10.20
70050;BMP180;57391;51.306;22.680;2024-03-23T03:31:17;98867.40;;;10.20
70050;BMP180;57391;51.306;22.680;2024-03-23T03:33:19;98869.40;;;10.20
70050;BMP180;57391;51.306;22.680;2024-03-23T03:35:21;98870.20;;;10.20
70050;BMP180;57391;51.306;22.680;2024-03-23T03:37:23;98866.40;;;10.20
70050;BMP180;57391;51.306;22.680;2024-03-23T03:39:25;98872.40;;;10.20
70050;BMP180;57391;51.306;22.680;2024-03-23T03:41:27;98868.80;;;10.20
70050;BMP180;57391;51.306;22.680;2024-03-23T03:43:29;98872.20;;;10.20
70050;BMP180;57391;51.306;22.680;2024-03-23T03:45:30;98872.40;;;10.20
70050;BMP180;57391;51.306;22.680;2024-03-23T03:47:32;98866.00;;;10.14
70050;BMP180;57391;51.306;22.680;2024-03-23T03:49:33;98869.40;;;10.14
70050;BMP180;57391;51.306;22.680;2024-03-23T03:51:35;98867.00;;;10.10
70050;BMP180;57391;51.306;22.680;2024-03-23T03:53:37;98865.00;;;10.10
70050;BMP180;57391;51.306;22.680;2024-03-23T03:55:38;98868.00;;;10.10
70050;BMP180;57391;51.306;22.680;2024-03-23T03:57:40;98865.00;;;10.10
70050;BMP180;57391;51.306;22.680;2024-03-23T03:59:42;98865.40;;;10.10
70050;BMP180;57391;51.306;22.680;2024-03-23T04:01:43;98865.20;;;10.10
70050;BMP180;57391;51.306;22.680;2024-03-23T04:03:45;98863.60;;;10.10
70050;BMP180;57391;51.306;22.680;2024-03-23T04:05:54;98856.80;;;10.10
70050;BMP180;57391;51.306;22.680;2024-03-23T04:07:56;98862.60;;;10.06
70050;BMP180;57391;51.306;22.680;2024-03-23T04:09:58;98863.60;;;10.02
70050;BMP180;57391;51.306;22.680;2024-03-23T04:11:59;98868.60;;;10.00
70050;BMP180;57391;51.306;22.680;2024-03-23T04:14:01;98863.40;;;10.00
70050;BMP180;57391;51.306;22.680;2024-03-23T04:16:03;98855.60;;;10.00
70050;BMP180;57391;51.306;22.680;2024-03-23T04:18:05;98861.40;;;10.00
70050;BMP180;57391;51.306;22.680;2024-03-23T04:20:07;98858.60;;;10.00
70050;BMP180;57391;51.306;22.680;2024-03-23T04:22:12;98859.00;;;10.00
70050;BMP180;57391;51.306;22.680;2024-03-23T04:24:14;98857.60;;;10.00
70050;BMP180;57391;51.306;22.680;2024-03-23T04:26:16;98852.20;;;10.00
70050;BMP180;57391;51.306;22.680;2024-03-23T04:28:18;98849.60;;;10.00
70050;BMP180;57391;51.306;22.680;2024-03-23T04:30:20;98849.40;;;10.00
70050;BMP180;57391;51.306;22.680;2024-03-23T04:32:22;98847.40;;;10.00
70050;BMP180;57391;51.306;22.680;2024-03-23T04:34:24;98844.60;;;9.98
70050;BMP180;57391;51.306;22.680;2024-03-23T04:36:25;98841.40;;;9.98
70050;BMP180;57391;51.306;22.680;2024-03-23T04:38:27;98843.20;;;10.00
70050;BMP180;57391;51.306;22.680;2024-03-23T04:40:28;98844.60;;;9.98
70050;BMP180;57391;51.306;22.680;2024-03-23T04:42:31;98843.00;;;9.96
70050;BMP180;57391;51.306;22.680;2024-03-23T04:44:32;98846.60;;;9.94
70050;BMP180;57391;51.306;22.680;2024-03-23T04:46:34;98841.60;;;9.98
70050;BMP180;57391;51.306;22.680;2024-03-23T04:48:36;98835.60;;;9.92
70050;BMP180;57391;51.306;22.680;2024-03-23T04:50:37;98837.00;;;9.92
70050;BMP180;57391;51.306;22.680;2024-03-23T04:52:39;98836.40;;;9.90
70050;BMP180;57391;51.306;22.680;2024-03-23T04:54:41;98833.40;;;9.90
70050;BMP180;57391;51.306;22.680;2024-03-23T04:56:42;98831.00;;;9.90
70050;BMP180;57391;51.306;22.680;2024-03-23T04:58:44;98830.60;;;9.90
70050;BMP180;57391;51.306;22.680;2024-03-23T05:00:46;98827.40;;;9.90
70050;BMP180;57391;51.306;22.680;2024-03-23T05:02:47;98833.40;;;9.90
70050;BMP180;57391;51.306;22.680;2024-03-23T05:04:49;98831.80;;;9.90
70050;BMP180;57391;51.306;22.680;2024-03-23T05:06:50;98832.60;;;9.90
70050;BMP180;57391;51.306;22.680;2024-03-23T05:08:52;98835.00;;;9.90
70050;BMP180;57391;51.306;22.680;2024-03-23T05:10:54;98833.20;;;9.90
70050;BMP180;57391;51.306;22.680;2024-03-23T05:12:55;98833.20;;;9.90
70050;BMP180;57391;51.306;22.680;2024-03-23T05:14:58;98832.00;;;9.90
70050;BMP180;57391;51.306;22.680;2024-03-23T05:16:59;98831.60;;;9.90
70050;BMP180;57391;51.306;22.680;2024-03-23T05:19:01;98827.20;;;9.90
70050;BMP180;57391;51.306;22.680;2024-03-23T05:21:03;98825.20;;;9.90
70050;BMP180;57391;51.306;22.680;2024-03-23T05:23:05;98825.60;;;9.90
70050;BMP180;57391;51.306;22.680;2024-03-23T05:25:07;98824.80;;;9.90
70050;BMP180;57391;51.306;22.680;2024-03-23T05:27:11;98828.00;;;9.90
70050;BMP180;57391;51.306;22.680;2024-03-23T05:29:12;98824.40;;;9.90
70050;BMP180;57391;51.306;22.680;2024-03-23T05:31:29;98820.20;;;9.90
70050;BMP180;57391;51.306;22.680;2024-03-23T05:33:31;98820.60;;;9.90
70050;BMP180;57391;51.306;22.680;2024-03-23T05:35:33;98819.80;;;9.90
70050;BMP180;57391;51.306;22.680;2024-03-23T05:37:34;98818.00;;;9.90
70050;BMP180;57391;51.306;22.680;2024-03-23T05:39:36;98818.40;;;9.90
70050;BMP180;57391;51.306;22.680;2024-03-23T05:41:37;98817.60;;;9.90
70050;BMP180;57391;51.306;22.680;2024-03-23T05:43:39;98816.80;;;9.90
70050;BMP180;57391;51.306;22.680;2024-03-23T05:45:41;98820.40;;;9.90
70050;BMP180;57391;51.306;22.680;2024-03-23T05:47:42;98814.00;;;9.90
70050;BMP180;57391;51.306;22.680;2024-03-23T05:49:46;98818.20;;;9.90
70050;BMP180;57391;51.306;22.680;2024-03-23T05:51:47;98810.60;;;9.90
70050;BMP180;57391;51.306;22.680;2024-03-23T05:53:49;98810.00;;;9.90
70050;BMP180;57391;51.306;22.680;2024-03-23T05:56:00;98811.20;;;9.90
70050;BMP180;57391;51.306;22.680;2024-03-23T05:58:02;98811.20;;;9.90
70050;BMP180;57391;51.306;22.680;2024-03-23T06:00:04;98814.40;;;9.88
70050;BMP180;57391;51.306;22.680;2024-03-23T06:02:06;98805.60;;;9.88
70050;BMP180;57391;51.306;22.680;2024-03-23T06:04:08;98810.40;;;9.88
70050;BMP180;57391;51.306;22.680;2024-03-23T06:06:10;98810.80;;;9.88
70050;BMP180;57391;51.306;22.680;2024-03-23T06:08:14;98809.00;;;9.90
70050;BMP180;57391;51.306;22.680;2024-03-23T06:10:16;98809.20;;;9.90
70050;BMP180;57391;51.306;22.680;2024-03-23T06:12:18;98809.00;;;9.86
70050;BMP180;57391;51.306;22.680;2024-03-23T06:14:19;98808.20;;;9.80
70050;BMP180;57391;51.306;22.680;2024-03-23T06:16:21;98803.20;;;9.84
70050;BMP180;57391;51.306;22.680;2024-03-23T06:18:26;98799.60;;;9.80
70050;BMP180;57391;51.306;22.680;2024-03-23T06:20:28;98794.20;;;9.80
70050;BMP180;57391;51.306;22.680;2024-03-23T06:22:29;98797.20;;;9.80
70050;BMP180;57391;51.306;22.680;2024-03-23T06:24:31;98792.80;;;9.80
70050;BMP180;57391;51.306;22.680;2024-03-23T06:26:33;98792.80;;;9.80
70050;BMP180;57391;51.306;22.680;2024-03-23T06:28:34;98794.00;;;9.80
70050;BMP180;57391;51.306;22.680;2024-03-23T06:30:36;98788.80;;;9.80
70050;BMP180;57391;51.306;22.680;2024-03-23T06:32:38;98789.20;;;9.80
70050;BMP180;57391;51.306;22.680;2024-03-23T06:34:43;98784.40;;;9.80
70050;BMP180;57391;51.306;22.680;2024-03-23T06:36:46;98787.40;;;9.80
70050;BMP180;57391;51.306;22.680;2024-03-23T06:38:48;98786.20;;;9.80
70050;BMP180;57391;51.306;22.680;2024-03-23T06:40:52;98784.00;;;9.80
70050;BMP180;57391;51.306;22.680;2024-03-23T06:42:54;98779.40;;;9.80
70050;BMP180;57391;51.306;22.680;2024-03-23T06:44:57;98785.40;;;9.80
70050;BMP180;57391;51.306;22.680;2024-03-23T06:46:59;98779.40;;;9.80
70050;BMP180;57391;51.306;22.680;2024-03-23T06:49:01;98775.80;;;9.80
70050;BMP180;57391;51.306;22.680;2024-03-23T06:51:03;98774.00;;;9.80
70050;BMP180;57391;51.306;22.680;2024-03-23T06:53:05;98775.00;;;9.80
70050;BMP180;57391;51.306;22.680;2024-03-23T06:55:07;98775.80;;;9.80
70050;BMP180;57391;51.306;22.680;2024-03-23T06:57:09;98775.80;;;9.86
70050;BMP180;57391;51.306;22.680;2024-03-23T06:59:10;98772.60;;;9.88
70050;BMP180;57391;51.306;22.680;2024-03-23T07:01:12;98775.60;;;9.90
70050;BMP180;57391;51.306;22.680;2024-03-23T07:03:15;98771.20;;;9.90
70050;BMP180;57391;51.306;22.680;2024-03-23T07:05:16;98771.00;;;9.90
70050;BMP180;57391;51.306;22.680;2024-03-23T07:07:18;98769.00;;;9.90
70050;BMP180;57391;51.306;22.680;2024-03-23T07:09:20;98770.40;;;10.00
70050;BMP180;57391;51.306;22.680;2024-03-23T07:11:26;98767.20;;;10.00
70050;BMP180;57391;51.306;22.680;2024-03-23T07:13:28;98772.60;;;10.00
70050;BMP180;57391;51.306;22.680;2024-03-23T07:15:30;98775.20;;;10.00
70050;BMP180;57391;51.306;22.680;2024-03-23T07:17:38;98778.60;;;10.00
70050;BMP180;57391;51.306;22.680;2024-03-23T07:19:40;98778.00;;;10.00
70050;BMP180;57391;51.306;22.680;2024-03-23T07:21:43;98774.80;;;10.00
70050;BMP180;57391;51.306;22.680;2024-03-23T07:23:49;98776.60;;;10.00
70050;BMP180;57391;51.306;22.680;2024-03-23T07:26:04;98772.00;;;10.02
70050;BMP180;57391;51.306;22.680;2024-03-23T07:28:06;98772.40;;;10.08
70050;BMP180;57391;51.306;22.680;2024-03-23T07:30:08;98771.00;;;10.10
70050;BMP180;57391;51.306;22.680;2024-03-23T07:32:10;98767.80;;;10.10
70050;BMP180;57391;51.306;22.680;2024-03-23T07:34:13;98766.40;;;10.10
70050;BMP180;57391;51.306;22.680;2024-03-23T07:36:15;98763.00;;;10.10
70050;BMP180;57391;51.306;22.680;2024-03-23T07:38:16;98759.80;;;10.10
70050;BMP180;57391;51.306;22.680;2024-03-23T07:40:18;98764.20;;;10.10
70050;BMP180;57391;51.306;22.680;2024-03-23T07:42:20;98762.20;;;10.12
70050;BMP180;57391;51.306;22.680;2024-03-23T07:44:21;98758.20;;;10.10
70050;BMP180;57391;51.306;22.680;2024-03-23T07:46:23;98754.40;;;10.10
70050;BMP180;57391;51.306;22.680;2024-03-23T07:48:27;98751.40;;;10.12
70050;BMP180;57391;51.306;22.680;2024-03-23T07:50:29;98752.60;;;10.10
70050;BMP180;57391;51.306;22.680;2024-03-23T07:52:31;98746.20;;;10.10
70050;BMP180;57391;51.306;22.680;2024-03-23T07:54:33;98745.20;;;10.10
70050;BMP180;57391;51.306;22.680;2024-03-23T07:56:34;98743.60;;;10.10
70050;BMP180;57391;51.306;22.680;2024-03-23T07:58:37;98739.80;;;10.10
70050;BMP180;57391;51.306;22.680;2024-03-23T08:00:39;98738.80;;;10.12
70050;BMP180;57391;51.306;22.680;2024-03-23T08:02:40;98738.40;;;10.12
70050;BMP180;57391;51.306;22.680;2024-03-23T08:04:42;98732.40;;;10.16
70050;BMP180;57391;51.306;22.680;2024-03-23T08:06:43;98733.40;;;10.20
70050;BMP180;57391;51.306;22.680;2024-03-23T08:08:48;98727.40;;;10.20
70050;BMP180;57391;51.306;22.680;2024-03-23T08:10:51;98725.80;;;10.20
70050;BMP180;57391;51.306;22.680;2024-03-23T08:12:53;98728.00;;;10.20
70050;BMP180;57391;51.306;22.680;2024-03-23T08:14:54;98725.20;;;10.30
70050;BMP180;57391;51.306;22.680;2024-03-23T08:17:00;98723.40;;;10.30
70050;BMP180;57391;51.306;22.680;2024-03-23T08:19:02;98720.00;;;10.30
70050;BMP180;57391;51.306;22.680;2024-03-23T08:21:06;98712.80;;;10.30
70050;BMP180;57391;51.306;22.680;2024-03-23T08:23:08;98711.80;;;10.30
70050;BMP180;57391;51.306;22.680;2024-03-23T08:25:09;98705.60;;;10.32
70050;BMP180;57391;51.306;22.680;2024-03-23T08:27:23;98704.20;;;10.40
70050;BMP180;57391;51.306;22.680;2024-03-23T08:29:27;98700.00;;;10.40
70050;BMP180;57391;51.306;22.680;2024-03-23T08:31:28;98702.60;;;10.40
70050;BMP180;57391;51.306;22.680;2024-03-23T08:33:30;98700.00;;;10.40
70050;BMP180;57391;51.306;22.680;2024-03-23T08:35:31;98702.20;;;10.40
70050;BMP180;57391;51.306;22.680;2024-03-23T08:37:33;98699.60;;;10.40
70050;BMP180;57391;51.306;22.680;2024-03-23T08:39:34;98694.00;;;10.48
70050;BMP180;57391;51.306;22.680;2024-03-23T08:41:36;98695.80;;;10.50
70050;BMP180;57391;51.306;22.680;2024-03-23T08:43:42;98691.20;;;10.56
70050;BMP180;57391;51.306;22.680;2024-03-23T08:45:43;98689.20;;;10.60
70050;BMP180;57391;51.306;22.680;2024-03-23T08:47:45;98690.40;;;10.70
70050;BMP180;57391;51.306;22.680;2024-03-23T08:49:46;98687.40;;;10.80
70050;BMP180;57391;51.306;22.680;2024-03-23T08:51:48;98686.60;;;10.80
70050;BMP180;57391;51.306;22.680;2024-03-23T08:53:50;98679.40;;;10.90
70050;BMP180;57391;51.306;22.680;2024-03-23T08:55:56;98676.60;;;10.98
70050;BMP180;57391;51.306;22.680;2024-03-23T08:58:06;98673.00;;;11.00
70050;BMP180;57391;51.306;22.680;2024-03-23T09:00:11;98672.20;;;11.10
70050;BMP180;57391;51.306;22.680;2024-03-23T09:02:13;98668.60;;;11.10
70050;BMP180;57391;51.306;22.680;2024-03-23T09:04:17;98665.00;;;11.12
70050;BMP180;57391;51.306;22.680;2024-03-23T09:06:19;98660.00;;;11.20
70050;BMP180;57391;51.306;22.680;2024-03-23T09:08:25;98655.60;;;11.20
70050;BMP180;57391;51.306;22.680;2024-03-23T09:10:27;98654.00;;;11.22
70050;BMP180;57391;51.306;22.680;2024-03-23T09:12:29;98651.60;;;11.30
70050;BMP180;57391;51.306;22.680;2024-03-23T09:14:30;98645.60;;;11.30
70050;BMP180;57391;51.306;22.680;2024-03-23T09:16:32;98641.80;;;11.30
70050;BMP180;57391;51.306;22.680;2024-03-23T09:18:36;98636.00;;;11.30
70050;BMP180;57391;51.306;22.680;2024-03-23T09:20:38;98634.20;;;11.30
70050;BMP180;57391;51.306;22.680;2024-03-23T09:22:40;98630.20;;;11.34
70050;BMP180;57391;51.306;22.680;2024-03-23T09:24:41;98630.80;;;11.40
70050;BMP180;57391;51.306;22.680;2024-03-23T09:26:43;98630.80;;;11.40
70050;BMP180;57391;51.306;22.680;2024-03-23T09:28:49;98623.80;;;11.40
70050;BMP180;57391;51.306;22.680;2024-03-23T09:30:50;98629.20;;;11.40
70050;BMP180;57391;51.306;22.680;2024-03-23T09:32:52;98627.60;;;11.40
70050;BMP180;57391;51.306;22.680;2024-03-23T09:34:54;98618.80;;;11.40
70050;BMP180;57391;51.306;22.680;2024-03-23T09:36:55;98619.40;;;11.48
70050;BMP180;57391;51.306;22.680;2024-03-23T09:39:08;98611.80;;;11.50
70050;BMP180;57391;51.306;22.680;2024-03-23T09:41:14;98608.80;;;11.50
70050;BMP180;57391;51.306;22.680;2024-03-23T09:43:16;98607.80;;;11.50
70050;BMP180;57391;51.306;22.680;2024-03-23T09:45:24;98611.20;;;11.50
70050;BMP180;57391;51.306;22.680;2024-03-23T09:50:39;98609.20;;;11.60
70050;BMP180;57391;51.306;22.680;2024-03-23T09:52:41;98611.40;;;11.70
70050;BMP180;57391;51.306;22.680;2024-03-23T09:54:46;98612.40;;;11.70
70050;BMP180;57391;51.306;22.680;2024-03-23T09:56:50;98606.00;;;11.74
70050;BMP180;57391;51.306;22.680;2024-03-23T09:59:04;98607.40;;;11.80
70050;BMP180;57391;51.306;22.680;2024-03-23T10:03:48;98598.20;;;11.80
70050;BMP180;57391;51.306;22.680;2024-03-23T10:06:03;98594.20;;;11.80
70050;BMP180;57391;51.306;22.680;2024-03-23T10:10:57;98588.80;;;11.90
70050;BMP180;57391;51.306;22.680;2024-03-23T10:13:07;98586.80;;;11.90
70050;BMP180;57391;51.306;22.680;2024-03-23T10:15:25;98579.20;;;11.90
70050;BMP180;57391;51.306;22.680;2024-03-23T10:17:27;98575.80;;;11.90
70050;BMP180;57391;51.306;22.680;2024-03-23T10:19:32;98578.00;;;11.90
70050;BMP180;57391;51.306;22.680;2024-03-23T10:21:34;98577.60;;;11.90
70050;BMP180;57391;51.306;22.680;2024-03-23T10:23:47;98569.20;;;11.90
70050;BMP180;57391;51.306;22.680;2024-03-23T10:25:54;98566.40;;;11.84
70050;BMP180;57391;51.306;22.680;2024-03-23T10:28:00;98559.60;;;11.80
70050;BMP180;57391;51.306;22.680;2024-03-23T10:30:14;98562.80;;;11.80
70050;BMP180;57391;51.306;22.680;2024-03-23T10:32:18;98559.40;;;11.80
70050;BMP180;57391;51.306;22.680;2024-03-23T10:34:44;98553.80;;;11.80
70050;BMP180;57391;51.306;22.680;2024-03-23T10:36:49;98550.20;;;11.80
70050;BMP180;57391;51.306;22.680;2024-03-23T10:38:56;98548.60;;;11.80
70050;BMP180;57391;51.306;22.680;2024-03-23T10:41:01;98551.20;;;11.80
70050;BMP180;57391;51.306;22.680;2024-03-23T10:43:04;98548.40;;;11.86
70050;BMP180;57391;51.306;22.680;2024-03-23T10:45:07;98542.80;;;11.88
70050;BMP180;57391;51.306;22.680;2024-03-23T10:47:09;98531.60;;;11.90
70050;BMP180;57391;51.306;22.680;2024-03-23T10:49:13;98529.20;;;11.90
70050;BMP180;57391;51.306;22.680;2024-03-23T10:51:15;98521.00;;;11.90
70050;BMP180;57391;51.306;22.680;2024-03-23T10:53:18;98525.60;;;11.90
70050;BMP180;57391;51.306;22.680;2024-03-23T10:55:22;98519.80;;;11.96
70050;BMP180;57391;51.306;22.680;2024-03-23T10:59:39;98517.40;;;12.00
70050;BMP180;57391;51.306;22.680;2024-03-23T11:01:55;98512.00;;;12.10
70050;BMP180;57391;51.306;22.680;2024-03-23T11:03:58;98503.00;;;12.18
70050;BMP180;57391;51.306;22.680;2024-03-23T11:06:00;98503.40;;;12.20
70050;BMP180;57391;51.306;22.680;2024-03-23T11:08:02;98494.20;;;12.20
70050;BMP180;57391;51.306;22.680;2024-03-23T11:10:30;98481.20;;;12.30
70050;BMP180;57391;51.306;22.680;2024-03-23T11:12:33;98477.20;;;12.38
70050;BMP180;57391;51.306;22.680;2024-03-23T11:14:34;98475.40;;;12.40
70050;BMP180;57391;51.306;22.680;2024-03-23T11:16:36;98477.40;;;12.50
70050;BMP180;57391;51.306;22.680;2024-03-23T11:18:41;98472.60;;;12.60
70050;BMP180;57391;51.306;22.680;2024-03-23T11:20:43;98470.20;;;12.70
70050;BMP180;57391;51.306;22.680;2024-03-23T11:22:46;98469.20;;;12.80
70050;BMP180;57391;51.306;22.680;2024-03-23T11:24:51;98461.60;;;12.90
70050;BMP180;57391;51.306;22.680;2024-03-23T11:26:53;98465.00;;;13.00
70050;BMP180;57391;51.306;22.680;2024-03-23T11:29:09;98459.00;;;13.10
70050;BMP180;57391;51.306;22.680;2024-03-23T11:31:11;98464.20;;;13.20
70050;BMP180;57391;51.306;22.680;2024-03-23T11:33:13;98451.00;;;13.30
70050;BMP180;57391;51.306;22.680;2024-03-23T11:35:33;98446.40;;;13.38
70050;BMP180;57391;51.306;22.680;2024-03-23T11:37:37;98443.20;;;13.50
70050;BMP180;57391;51.306;22.680;2024-03-23T11:39:39;98440.60;;;13.60
70050;BMP180;57391;51.306;22.680;2024-03-23T11:41:55;98439.40;;;13.74
70050;BMP180;57391;51.306;22.680;2024-03-23T11:43:57;98432.60;;;13.90
70050;BMP180;57391;51.306;22.680;2024-03-23T11:45:58;98421.80;;;14.06
70050;BMP180;57391;51.306;22.680;2024-03-23T11:48:13;98404.40;;;14.18
70050;BMP180;57391;51.306;22.680;2024-03-23T11:50:20;98401.00;;;14.26
70050;BMP180;57391;51.306;22.680;2024-03-23T11:52:22;98393.60;;;14.30
70050;BMP180;57391;51.306;22.680;2024-03-23T11:54:26;98389.20;;;14.36
70050;BMP180;57391;51.306;22.680;2024-03-23T11:56:28;98388.00;;;14.38
70050;BMP180;57391;51.306;22.680;2024-03-23T11:58:30;98381.00;;;14.40
70050;BMP180;57391;51.306;22.680;2024-03-23T12:00:31;98379.80;;;14.40
70050;BMP180;57391;51.306;22.680;2024-03-23T12:02:34;98387.80;;;14.50
70050;BMP180;57391;51.306;22.680;2024-03-23T12:04:37;98390.00;;;14.50
70050;BMP180;57391;51.306;22.680;2024-03-23T12:06:46;98381.20;;;14.60
70050;BMP180;57391;51.306;22.680;2024-03-23T12:08:48;98376.60;;;14.60
70050;BMP180;57391;51.306;22.680;2024-03-23T12:11:16;98375.80;;;14.60
70050;BMP180;57391;51.306;22.680;2024-03-23T12:13:20;98366.20;;;14.70
70050;BMP180;57391;51.306;22.680;2024-03-23T12:15:22;98363.80;;;14.74
70050;BMP180;57391;51.306;22.680;2024-03-23T12:17:24;98354.60;;;14.86
70050;BMP180;57391;51.306;22.680;2024-03-23T12:19:25;98352.40;;;14.90
70050;BMP180;57391;51.306;22.680;2024-03-23T12:21:27;98342.20;;;15.06
70050;BMP180;57391;51.306;22.680;2024-03-23T12:23:29;98338.80;;;15.20
70050;BMP180;57391;51.306;22.680;2024-03-23T12:25:31;98338.20;;;15.40
70050;BMP180;57391;51.306;22.680;2024-03-23T12:27:32;98333.20;;;15.56
70050;BMP180;57391;51.306;22.680;2024-03-23T12:29:34;98333.80;;;15.70
70050;BMP180;57391;51.306;22.680;2024-03-23T12:31:36;98327.80;;;15.80
70050;BMP180;57391;51.306;22.680;2024-03-23T12:33:37;98328.80;;;15.90
70050;BMP180;57391;51.306;22.680;2024-03-23T12:35:39;98328.80;;;16.00
70050;BMP180;57391;51.306;22.680;2024-03-23T12:37:41;98326.40;;;16.00
70050;BMP180;57391;51.306;22.680;2024-03-23T12:39:43;98324.00;;;16.00
70050;BMP180;57391;51.306;22.680;2024-03-23T12:41:44;98323.80;;;16.00
70050;BMP180;57391;51.306;22.680;2024-03-23T12:43:49;98319.40;;;15.98
70050;BMP180;57391;51.306;22.680;2024-03-23T12:45:51;98314.20;;;15.98